sensor_id;sensor_type;location;lat;lon;timestamp;pressure;altitude;pressure_sealevel;temperature;humidity
21234;BME280;10774;42.178;26.578;2024-01-07T00:01:26;99057.09;;;12.16;100.00
21234;BME280;10774;42.178;26.578;2024-01-07T00:03:52;99059.25;;;12.22;100.00
21234;BME280;10774;42.178;26.578;2024-01-07T00:06:17;99056.31;;;12.25;100.00
21234;BME280;10774;42.178;26.578;2024-01-07T00:08:43;99054.53;;;12.36;100.00
21234;BME280;10774;42.178;26.578;2024-01-07T00:11:08;99050.94;;;12.46;100.00
21234;BME280;10774;42.178;26.578;2024-01-07T00:13:34;99042.56;;;12.28;100.00
21234;BME280;10774;42.178;26.578;2024-01-07T00:15:59;99037.16;;;12.40;100.00
21234;BME280;10774;42.178;26.578;2024-01-07T00:18:25;99033.63;;;12.39;100.00
21234;BME280;10774;42.178;26.578;2024-01-07T00:20:52;99024.09;;;12.35;100.00
21234;BME280;10774;42.178;26.578;2024-01-07T00:23:17;99038.19;;;12.48;100.00
21234;BME280;10774;42.178;26.578;2024-01-07T00:25:43;99026.56;;;12.48;100.00
21234;BME280;10774;42.178;26.578;2024-01-07T00:28:08;99039.25;;;12.57;100.00
21234;BME280;10774;42.178;26.578;2024-01-07T00:30:35;99019.84;;;12.63;100.00
21234;BME280;10774;42.178;26.578;2024-01-07T00:33:00;99012.78;;;12.62;100.00
21234;BME280;10774;42.178;26.578;2024-01-07T00:35:25;99021.84;;;12.61;100.00
21234;BME280;10774;42.178;26.578;2024-01-07T00:37:51;99022.63;;;12.52;100.00
21234;BME280;10774;42.178;26.578;2024-01-07T00:40:16;99011.94;;;12.41;100.00
21234;BME280;10774;42.178;26.578;2024-01-07T00:42:41;99001.03;;;12.42;100.00
21234;BME280;10774;42.178;26.578;2024-01-07T00:45:08;99004.50;;;12.54;100.00
21234;BME280;10774;42.178;26.578;2024-01-07T00:47:34;98996.06;;;12.38;100.00
21234;BME280;10774;42.178;26.578;2024-01-07T00:49:59;98973.69;;;12.16;100.00
21234;BME280;10774;42.178;26.578;2024-01-07T00:52:24;98976.53;;;12.15;100.00
21234;BME280;10774;42.178;26.578;2024-01-07T00:54:50;98966.38;;;12.18;100.00
21234;BME280;10774;42.178;26.578;2024-01-07T00:57:15;98957.78;;;12.03;100.00
21234;BME280;10774;42.178;26.578;2024-01-07T00:59:41;98971.53;;;12.10;100.00
21234;BME280;10774;42.178;26.578;2024-01-07T01:30:02;98909.13;;;12.87;100.00
21234;BME280;10774;42.178;26.578;2024-01-07T01:32:27;98902.34;;;12.93;100.00
21234;BME280;10774;42.178;26.578;2024-01-07T01:34:53;98889.44;;;12.87;100.00
21234;BME280;10774;42.178;26.578;2024-01-07T01:37:18;98878.22;;;12.81;100.00
21234;BME280;10774;42.178;26.578;2024-01-07T01:39:44;98887.88;;;12.84;100.00
21234;BME280;10774;42.178;26.578;2024-01-07T01:42:09;98875.63;;;12.70;100.00
21234;BME280;10774;42.178;26.578;2024-01-07T01:44:34;98874.53;;;12.82;100.00
21234;BME280;10774;42.178;26.578;2024-01-07T01:47:00;98889.13;;;12.80;100.00
21234;BME280;10774;42.178;26.578;2024-01-07T01:49:27;98884.59;;;12.80;100.00
21234;BME280;10774;42.178;26.578;2024-01-07T01:51:53;98883.03;;;12.78;100.00
21234;BME280;10774;42.178;26.578;2024-01-07T01:54:19;98881.63;;;12.83;100.00
21234;BME280;10774;42.178;26.578;2024-01-07T01:56:45;98864.78;;;12.81;100.00
21234;BME280;10774;42.178;26.578;2024-01-07T01:59:11;98850.44;;;12.71;100.00
21234;BME280;10774;42.178;26.578;2024-01-07T02:01:37;98862.16;;;12.70;100.00
21234;BME280;10774;42.178;26.578;2024-01-07T02:04:03;98855.25;;;12.77;100.00
21234;BME280;10774;42.178;26.578;2024-01-07T02:06:28;98832.28;;;12.73;100.00
21234;BME280;10774;42.178;26.578;2024-01-07T02:08:55;98856.13;;;12.88;100.00
21234;BME280;10774;42.178;26.578;2024-01-07T02:11:21;98846.47;;;12.85;100.00
21234;BME280;10774;42.178;26.578;2024-01-07T02:13:47;98834.03;;;12.94;100.00
21234;BME280;10774;42.178;26.578;2024-01-07T02:16:13;98832.31;;;12.93;100.00
21234;BME280;10774;42.178;26.578;2024-01-07T02:18:44;98829.63;;;12.93;100.00
21234;BME280;10774;42.178;26.578;2024-01-07T02:21:10;98826.06;;;12.82;100.00
21234;BME280;10774;42.178;26.578;2024-01-07T02:23:36;98813.28;;;12.75;100.00
21234;BME280;10774;42.178;26.578;2024-01-07T02:26:02;98830.03;;;12.78;100.00
21234;BME280;10774;42.178;26.578;2024-01-07T02:28:29;98820.94;;;12.70;100.00
21234;BME280;10774;42.178;26.578;2024-01-07T02:30:54;98811.41;;;12.46;100.00
21234;BME280;10774;42.178;26.578;2024-01-07T02:33:19;98794.13;;;12.49;100.00
21234;BME280;10774;42.178;26.578;2024-01-07T02:35:45;98801.94;;;12.52;100.00
21234;BME280;10774;42.178;26.578;2024-01-07T02:38:10;98793.25;;;12.29;100.00
21234;BME280;10774;42.178;26.578;2024-01-07T02:40:36;98797.38;;;12.43;100.00
21234;BME280;10774;42.178;26.578;2024-01-07T02:43:01;98763.34;;;12.32;100.00
21234;BME280;10774;42.178;26.578;2024-01-07T02:45:26;98765.91;;;12.43;100.00
21234;BME280;10774;42.178;26.578;2024-01-07T02:47:52;98750.78;;;12.42;100.00
21234;BME280;10774;42.178;26.578;2024-01-07T02:50:17;98748.25;;;12.50;100.00
21234;BME280;10774;42.178;26.578;2024-01-07T02:52:43;98734.22;;;12.47;100.00
21234;BME280;10774;42.178;26.578;2024-01-07T02:55:08;98730.66;;;12.75;100.00
21234;BME280;10774;42.178;26.578;2024-01-07T02:57:34;98729.13;;;12.82;100.00
21234;BME280;10774;42.178;26.578;2024-01-07T02:59:59;98722.47;;;12.77;100.00
21234;BME280;10774;42.178;26.578;2024-01-07T03:02:25;98696.25;;;12.60;100.00
21234;BME280;10774;42.178;26.578;2024-01-07T03:04:50;98711.84;;;12.56;100.00
21234;BME280;10774;42.178;26.578;2024-01-07T03:07:16;98692.28;;;12.54;100.00
21234;BME280;10774;42.178;26.578;2024-01-07T03:09:41;98670.72;;;12.44;100.00
21234;BME280;10774;42.178;26.578;2024-01-07T03:12:06;98674.72;;;12.30;100.00
21234;BME280;10774;42.178;26.578;2024-01-07T03:14:32;98672.75;;;12.52;100.00
21234;BME280;10774;42.178;26.578;2024-01-07T03:16:57;98655.88;;;12.40;100.00
21234;BME280;10774;42.178;26.578;2024-01-07T03:19:23;98657.31;;;12.35;100.00
21234;BME280;10774;42.178;26.578;2024-01-07T03:21:48;98659.13;;;12.44;100.00
21234;BME280;10774;42.178;26.578;2024-01-07T03:24:14;98642.13;;;12.53;100.00
21234;BME280;10774;42.178;26.578;2024-01-07T03:26:39;98636.16;;;12.69;100.00
21234;BME280;10774;42.178;26.578;2024-01-07T03:29:05;98627.25;;;12.68;100.00
21234;BME280;10774;42.178;26.578;2024-01-07T03:31:30;98622.28;;;12.73;100.00
21234;BME280;10774;42.178;26.578;2024-01-07T03:33:56;98612.63;;;12.80;100.00
21234;BME280;10774;42.178;26.578;2024-01-07T03:36:21;98616.31;;;12.89;100.00
21234;BME280;10774;42.178;26.578;2024-01-07T03:38:47;98595.31;;;12.93;100.00
21234;BME280;10774;42.178;26.578;2024-01-07T03:41:19;98588.94;;;12.94;100.00
21234;BME280;10774;42.178;26.578;2024-01-07T03:43:48;98583.38;;;13.05;100.00
21234;BME280;10774;42.178;26.578;2024-01-07T03:46:14;98584.66;;;13.01;100.00
21234;BME280;10774;42.178;26.578;2024-01-07T03:48:41;98579.16;;;12.93;100.00
21234;BME280;10774;42.178;26.578;2024-01-07T03:51:06;98569.50;;;13.00;100.00
21234;BME280;10774;42.178;26.578;2024-01-07T03:53:32;98576.03;;;12.97;100.00
21234;BME280;10774;42.178;26.578;2024-01-07T03:55:58;98564.84;;;12.92;100.00
21234;BME280;10774;42.178;26.578;2024-01-07T03:58:23;98549.13;;;12.88;100.00
21234;BME280;10774;42.178;26.578;2024-01-07T04:00:48;98550.22;;;12.95;100.00
21234;BME280;10774;42.178;26.578;2024-01-07T04:03:14;98543.88;;;12.86;100.00
21234;BME280;10774;42.178;26.578;2024-01-07T04:05:39;98537.22;;;12.80;100.00
21234;BME280;10774;42.178;26.578;2024-01-07T04:08:05;98546.72;;;12.85;100.00
21234;BME280;10774;42.178;26.578;2024-01-07T04:10:30;98534.09;;;12.85;100.00
21234;BME280;10774;42.178;26.578;2024-01-07T04:12:56;98534.91;;;12.95;100.00
21234;BME280;10774;42.178;26.578;2024-01-07T04:15:21;98530.81;;;12.91;100.00
21234;BME280;10774;42.178;26.578;2024-01-07T04:17:47;98573.19;;;12.99;100.00
21234;BME280;10774;42.178;26.578;2024-01-07T04:20:13;98605.47;;;13.18;100.00
21234;BME280;10774;42.178;26.578;2024-01-07T04:22:39;98675.50;;;13.18;100.00
21234;BME280;10774;42.178;26.578;2024-01-07T04:25:05;98711.56;;;12.98;100.00
21234;BME280;10774;42.178;26.578;2024-01-07T04:27:34;98701.09;;;12.56;100.00
21234;BME280;10774;42.178;26.578;2024-01-07T04:30:00;98723.13;;;12.30;100.00
21234;BME280;10774;42.178;26.578;2024-01-07T04:32:26;98718.28;;;12.15;100.00
21234;BME280;10774;42.178;26.578;2024-01-07T04:34:51;98712.88;;;12.05;100.00
21234;BME280;10774;42.178;26.578;2024-01-07T04:37:17;98727.59;;;12.01;100.00
21234;BME280;10774;42.178;26.578;2024-01-07T04:39:42;98725.44;;;11.95;100.00
21234;BME280;10774;42.178;26.578;2024-01-07T04:42:08;98723.25;;;11.79;100.00
21234;BME280;10774;42.178;26.578;2024-01-07T04:44:33;98732.31;;;11.78;100.00
21234;BME280;10774;42.178;26.578;2024-01-07T04:46:58;98752.66;;;11.81;100.00
21234;BME280;10774;42.178;26.578;2024-01-07T04:49:24;98760.56;;;11.72;100.00
21234;BME280;10774;42.178;26.578;2024-01-07T04:51:49;98773.28;;;11.70;100.00
21234;BME280;10774;42.178;26.578;2024-01-07T04:54:15;98752.06;;;11.67;100.00
21234;BME280;10774;42.178;26.578;2024-01-07T04:56:40;98757.91;;;11.51;100.00
21234;BME280;10774;42.178;26.578;2024-01-07T04:59:05;98741.50;;;11.55;100.00
21234;BME280;10774;42.178;26.578;2024-01-07T05:01:34;98725.63;;;11.42;100.00
21234;BME280;10774;42.178;26.578;2024-01-07T05:04:01;98746.31;;;11.51;100.00
21234;BME280;10774;42.178;26.578;2024-01-07T05:06:26;98737.81;;;11.46;100.00
21234;BME280;10774;42.178;26.578;2024-01-07T05:08:51;98733.03;;;11.49;100.00
21234;BME280;10774;42.178;26.578;2024-01-07T05:11:17;98714.34;;;11.48;100.00
21234;BME280;10774;42.178;26.578;2024-01-07T05:13:42;98681.72;;;11.32;100.00
21234;BME280;10774;42.178;26.578;2024-01-07T05:16:08;98681.91;;;11.09;100.00
21234;BME280;10774;42.178;26.578;2024-01-07T05:18:33;98694.59;;;11.07;100.00
21234;BME280;10774;42.178;26.578;2024-01-07T05:20:58;98678.91;;;11.03;100.00
21234;BME280;10774;42.178;26.578;2024-01-07T05:23:24;98658.34;;;10.92;100.00
21234;BME280;10774;42.178;26.578;2024-01-07T05:25:49;98633.06;;;10.73;100.00
21234;BME280;10774;42.178;26.578;2024-01-07T05:28:15;98637.00;;;10.69;100.00
21234;BME280;10774;42.178;26.578;2024-01-07T05:30:44;98611.47;;;10.54;100.00
21234;BME280;10774;42.178;26.578;2024-01-07T05:33:10;98589.50;;;10.60;100.00
21234;BME280;10774;42.178;26.578;2024-01-07T05:35:35;98598.25;;;10.62;100.00
21234;BME280;10774;42.178;26.578;2024-01-07T05:38:01;98622.47;;;10.72;100.00
21234;BME280;10774;42.178;26.578;2024-01-07T05:40:26;98605.38;;;10.73;100.00
21234;BME280;10774;42.178;26.578;2024-01-07T05:42:52;98606.50;;;10.70;100.00
21234;BME280;10774;42.178;26.578;2024-01-07T05:45:17;98609.91;;;10.72;100.00
21234;BME280;10774;42.178;26.578;2024-01-07T05:47:42;98611.59;;;10.73;100.00
21234;BME280;10774;42.178;26.578;2024-01-07T05:50:08;98607.00;;;10.64;100.00
21234;BME280;10774;42.178;26.578;2024-01-07T05:52:34;98614.59;;;10.59;100.00
21234;BME280;10774;42.178;26.578;2024-01-07T05:54:59;98620.72;;;10.61;100.00
21234;BME280;10774;42.178;26.578;2024-01-07T05:57:25;98612.91;;;10.58;100.00
21234;BME280;10774;42.178;26.578;2024-01-07T05:59:51;98609.00;;;10.62;100.00
21234;BME280;10774;42.178;26.578;2024-01-07T06:02:17;98634.91;;;10.52;100.00
21234;BME280;10774;42.178;26.578;2024-01-07T06:04:43;98637.00;;;10.69;100.00
21234;BME280;10774;42.178;26.578;2024-01-07T06:07:08;98633.59;;;10.67;100.00
21234;BME280;10774;42.178;26.578;2024-01-07T06:09:34;98637.59;;;10.73;100.00
21234;BME280;10774;42.178;26.578;2024-01-07T06:11:59;98634.22;;;10.60;100.00
21234;BME280;10774;42.178;26.578;2024-01-07T06:14:25;98632.53;;;10.59;100.00
21234;BME280;10774;42.178;26.578;2024-01-07T06:16:50;98652.16;;;10.59;100.00
21234;BME280;10774;42.178;26.578;2024-01-07T06:19:19;98652.84;;;10.72;100.00
21234;BME280;10774;42.178;26.578;2024-01-07T06:21:44;98645.38;;;10.76;100.00
21234;BME280;10774;42.178;26.578;2024-01-07T06:24:10;98639.88;;;10.78;100.00
21234;BME280;10774;42.178;26.578;2024-01-07T06:26:35;98626.53;;;10.66;100.00
21234;BME280;10774;42.178;26.578;2024-01-07T06:29:01;98614.09;;;10.65;100.00
21234;BME280;10774;42.178;26.578;2024-01-07T06:31:27;98612.44;;;10.53;100.00
21234;BME280;10774;42.178;26.578;2024-01-07T06:33:52;98618.56;;;10.76;100.00
21234;BME280;10774;42.178;26.578;2024-01-07T06:36:18;98611.47;;;10.54;100.00
21234;BME280;10774;42.178;26.578;2024-01-07T06:38:43;98625.47;;;10.79;100.00
21234;BME280;10774;42.178;26.578;2024-01-07T06:41:12;98617.50;;;10.67;100.00
21234;BME280;10774;42.178;26.578;2024-01-07T06:43:38;98612.13;;;10.67;100.00
21234;BME280;10774;42.178;26.578;2024-01-07T06:46:04;98621.88;;;10.68;100.00
21234;BME280;10774;42.178;26.578;2024-01-07T06:48:29;98616.38;;;10.70;100.00
21234;BME280;10774;42.178;26.578;2024-01-07T06:50:55;98636.22;;;10.79;100.00
21234;BME280;10774;42.178;26.578;2024-01-07T06:53:20;98614.75;;;10.79;100.00
21234;BME280;10774;42.178;26.578;2024-01-07T06:55:46;98624.63;;;10.57;100.00
21234;BME280;10774;42.178;26.578;2024-01-07T06:58:12;98612.59;;;10.72;100.00
21234;BME280;10774;42.178;26.578;2024-01-07T07:00:37;98596.63;;;10.71;100.00
21234;BME280;10774;42.178;26.578;2024-01-07T07:03:03;98593.34;;;10.67;100.00
21234;BME280;10774;42.178;26.578;2024-01-07T07:05:28;98585.75;;;10.72;100.00
21234;BME280;10774;42.178;26.578;2024-01-07T07:07:54;98592.94;;;10.93;100.00
21234;BME280;10774;42.178;26.578;2024-01-07T07:10:19;98591.41;;;11.00;100.00
21234;BME280;10774;42.178;26.578;2024-01-07T07:12:44;98593.28;;;11.09;100.00
21234;BME280;10774;42.178;26.578;2024-01-07T07:15:10;98591.66;;;11.27;100.00
21234;BME280;10774;42.178;26.578;2024-01-07T07:17:38;98586.19;;;11.39;100.00
21234;BME280;10774;42.178;26.578;2024-01-07T07:20:05;98576.91;;;11.62;100.00
21234;BME280;10774;42.178;26.578;2024-01-07T07:22:31;98598.16;;;11.65;100.00
21234;BME280;10774;42.178;26.578;2024-01-07T07:24:56;98584.25;;;11.50;100.00
21234;BME280;10774;42.178;26.578;2024-01-07T07:27:22;98579.81;;;11.30;100.00
21234;BME280;10774;42.178;26.578;2024-01-07T07:29:47;98586.03;;;11.31;100.00
21234;BME280;10774;42.178;26.578;2024-01-07T07:32:13;98582.91;;;11.25;100.00
21234;BME280;10774;42.178;26.578;2024-01-07T07:34:38;98585.03;;;11.32;100.00
21234;BME280;10774;42.178;26.578;2024-01-07T07:37:04;98570.06;;;11.39;100.00
21234;BME280;10774;42.178;26.578;2024-01-07T07:39:29;98590.28;;;11.43;100.00
21234;BME280;10774;42.178;26.578;2024-01-07T07:41:55;98597.91;;;11.38;100.00
21234;BME280;10774;42.178;26.578;2024-01-07T07:44:20;98592.09;;;11.33;100.00
21234;BME280;10774;42.178;26.578;2024-01-07T07:46:45;98606.56;;;11.41;100.00
21234;BME280;10774;42.178;26.578;2024-01-07T07:49:11;98608.56;;;11.49;100.00
21234;BME280;10774;42.178;26.578;2024-01-07T07:51:36;98612.97;;;11.50;100.00
21234;BME280;10774;42.178;26.578;2024-01-07T07:54:02;98621.97;;;11.49;100.00
21234;BME280;10774;42.178;26.578;2024-01-07T07:56:28;98621.31;;;11.57;100.00
21234;BME280;10774;42.178;26.578;2024-01-07T07:58:54;98620.19;;;11.59;100.00
21234;BME280;10774;42.178;26.578;2024-01-07T08:01:19;98606.63;;;11.70;100.00
21234;BME280;10774;42.178;26.578;2024-01-07T08:03:45;98597.31;;;11.74;100.00
21234;BME280;10774;42.178;26.578;2024-01-07T08:06:10;98578.63;;;11.63;100.00
21234;BME280;10774;42.178;26.578;2024-01-07T08:08:36;98558.81;;;11.64;100.00
21234;BME280;10774;42.178;26.578;2024-01-07T08:11:01;98574.16;;;11.83;100.00
21234;BME280;10774;42.178;26.578;2024-01-07T08:13:27;98563.78;;;11.78;100.00
21234;BME280;10774;42.178;26.578;2024-01-07T08:15:52;98566.75;;;11.75;100.00
21234;BME280;10774;42.178;26.578;2024-01-07T08:18:18;98566.47;;;11.78;100.00
21234;BME280;10774;42.178;26.578;2024-01-07T08:20:43;98548.81;;;11.76;100.00
21234;BME280;10774;42.178;26.578;2024-01-07T08:23:08;98545.25;;;11.75;100.00
21234;BME280;10774;42.178;26.578;2024-01-07T08:25:35;98543.75;;;11.83;100.00
21234;BME280;10774;42.178;26.578;2024-01-07T08:28:00;98543.34;;;11.97;100.00
21234;BME280;10774;42.178;26.578;2024-01-07T08:30:26;98540.19;;;12.11;100.00
21234;BME280;10774;42.178;26.578;2024-01-07T08:32:51;98533.25;;;12.28;100.00
21234;BME280;10774;42.178;26.578;2024-01-07T08:35:17;98523.22;;;12.30;100.00
21234;BME280;10774;42.178;26.578;2024-01-07T08:37:42;98519.78;;;12.28;100.00
21234;BME280;10774;42.178;26.578;2024-01-07T08:40:08;98511.84;;;12.46;100.00
21234;BME280;10774;42.178;26.578;2024-01-07T08:42:35;98517.22;;;12.55;100.00
21234;BME280;10774;42.178;26.578;2024-01-07T08:45:03;98530.19;;;12.70;100.00
21234;BME280;10774;42.178;26.578;2024-01-07T08:47:29;98515.78;;;12.61;100.00
21234;BME280;10774;42.178;26.578;2024-01-07T08:49:57;98522.69;;;12.73;100.00
21234;BME280;10774;42.178;26.578;2024-01-07T08:52:22;98525.66;;;12.70;100.00
21234;BME280;10774;42.178;26.578;2024-01-07T08:54:47;98534.44;;;12.72;100.00
21234;BME280;10774;42.178;26.578;2024-01-07T08:57:13;98547.88;;;12.82;100.00
21234;BME280;10774;42.178;26.578;2024-01-07T08:59:38;98525.91;;;12.87;100.00
21234;BME280;10774;42.178;26.578;2024-01-07T09:02:04;98517.53;;;13.17;100.00
21234;BME280;10774;42.178;26.578;2024-01-07T09:04:30;98509.16;;;13.48;100.00
21234;BME280;10774;42.178;26.578;2024-01-07T09:06:55;98514.81;;;13.72;100.00
21234;BME280;10774;42.178;26.578;2024-01-07T09:09:21;98514.88;;;13.80;100.00
21234;BME280;10774;42.178;26.578;2024-01-07T09:11:46;98517.75;;;13.79;100.00
21234;BME280;10774;42.178;26.578;2024-01-07T09:14:11;98513.19;;;13.79;100.00
21234;BME280;10774;42.178;26.578;2024-01-07T09:16:37;98498.78;;;13.71;100.00
21234;BME280;10774;42.178;26.578;2024-01-07T09:19:02;98489.44;;;13.65;100.00
21234;BME280;10774;42.178;26.578;2024-01-07T09:21:28;98496.25;;;13.69;100.00
21234;BME280;10774;42.178;26.578;2024-01-07T09:23:53;98498.56;;;13.64;100.00
21234;BME280;10774;42.178;26.578;2024-01-07T09:26:19;98497.31;;;13.58;100.00
21234;BME280;10774;42.178;26.578;2024-01-07T09:28:44;98496.75;;;13.55;100.00
21234;BME280;10774;42.178;26.578;2024-01-07T09:31:09;98480.13;;;13.59;100.00
21234;BME280;10774;42.178;26.578;2024-01-07T09:33:35;98480.06;;;13.69;100.00
21234;BME280;10774;42.178;26.578;2024-01-07T09:36:00;98484.84;;;13.75;100.00
21234;BME280;10774;42.178;26.578;2024-01-07T09:38:26;98482.16;;;13.93;100.00
21234;BME280;10774;42.178;26.578;2024-01-07T09:40:52;98472.13;;;14.03;100.00
21234;BME280;10774;42.178;26.578;2024-01-07T09:43:19;98463.69;;;14.24;100.00
21234;BME280;10774;42.178;26.578;2024-01-07T09:45:46;98465.56;;;14.50;100.00
21234;BME280;10774;42.178;26.578;2024-01-07T09:48:13;98452.56;;;14.79;100.00
21234;BME280;10774;42.178;26.578;2024-01-07T09:50:39;98439.31;;;14.94;100.00
21234;BME280;10774;42.178;26.578;2024-01-07T09:53:07;98424.97;;;15.02;100.00
21234;BME280;10774;42.178;26.578;2024-01-07T09:56:26;98417.03;;;15.00;100.00
21234;BME280;10774;42.178;26.578;2024-01-07T09:58:27;98400.94;;;14.90;100.00
21234;BME280;10774;42.178;26.578;2024-01-07T10:00:54;98405.56;;;14.98;100.00
21234;BME280;10774;42.178;26.578;2024-01-07T10:03:19;98392.63;;;14.76;100.00
21234;BME280;10774;42.178;26.578;2024-01-07T10:05:45;98382.03;;;14.82;100.00
21234;BME280;10774;42.178;26.578;2024-01-07T10:08:10;98363.25;;;14.73;100.00
21234;BME280;10774;42.178;26.578;2024-01-07T10:10:36;98363.78;;;14.84;100.00
21234;BME280;10774;42.178;26.578;2024-01-07T10:13:02;98365.53;;;14.94;100.00
21234;BME280;10774;42.178;26.578;2024-01-07T10:15:27;98357.72;;;14.90;100.00
21234;BME280;10774;42.178;26.578;2024-01-07T10:18:03;98348.28;;;14.95;100.00
21234;BME280;10774;42.178;26.578;2024-01-07T10:20:29;98359.09;;;14.95;100.00
21234;BME280;10774;42.178;26.578;2024-01-07T10:22:56;98356.03;;;14.89;100.00
21234;BME280;10774;42.178;26.578;2024-01-07T10:25:21;98368.94;;;15.04;100.00
21234;BME280;10774;42.178;26.578;2024-01-07T10:27:47;98354.03;;;15.08;100.00
21234;BME280;10774;42.178;26.578;2024-01-07T10:30:15;98357.44;;;15.10;100.00
21234;BME280;10774;42.178;26.578;2024-01-07T10:32:42;98352.38;;;15.23;100.00
21234;BME280;10774;42.178;26.578;2024-01-07T10:35:12;98350.03;;;15.20;100.00
21234;BME280;10774;42.178;26.578;2024-01-07T10:37:38;98354.25;;;15.14;100.00
21234;BME280;10774;42.178;26.578;2024-01-07T10:40:06;98350.50;;;14.99;100.00
21234;BME280;10774;42.178;26.578;2024-01-07T10:42:33;98348.13;;;14.88;100.00
21234;BME280;10774;42.178;26.578;2024-01-07T10:45:00;98335.41;;;14.80;100.00
21234;BME280;10774;42.178;26.578;2024-01-07T10:47:29;98333.25;;;14.92;100.00
21234;BME280;10774;42.178;26.578;2024-01-07T10:49:57;98323.81;;;14.96;100.00
21234;BME280;10774;42.178;26.578;2024-01-07T10:52:23;98336.19;;;15.15;100.00
21234;BME280;10774;42.178;26.578;2024-01-07T10:54:48;98334.84;;;15.19;100.00
21234;BME280;10774;42.178;26.578;2024-01-07T10:59:58;98313.19;;;15.11;100.00
21234;BME280;10774;42.178;26.578;2024-01-07T11:02:24;98331.78;;;15.14;100.00
21234;BME280;10774;42.178;26.578;2024-01-07T11:05:06;98321.81;;;15.14;100.00
21234;BME280;10774;42.178;26.578;2024-01-07T11:07:41;98312.03;;;15.38;100.00
21234;BME280;10774;42.178;26.578;2024-01-07T11:10:20;98302.22;;;15.53;100.00
21234;BME280;10774;42.178;26.578;2024-01-07T11:12:56;98298.03;;;15.67;100.00
21234;BME280;10774;42.178;26.578;2024-01-07T11:18:22;98290.56;;;15.93;100.00
21234;BME280;10774;42.178;26.578;2024-01-07T11:20:53;98283.09;;;16.04;100.00
21234;BME280;10774;42.178;26.578;2024-01-07T11:26:03;98283.84;;;16.29;100.00
21234;BME280;10774;42.178;26.578;2024-01-07T11:28:54;98289.63;;;16.17;100.00
21234;BME280;10774;42.178;26.578;2024-01-07T11:34:08;98285.69;;;16.28;100.00
21234;BME280;10774;42.178;26.578;2024-01-07T11:36:37;98289.47;;;16.19;100.00
21234;BME280;10774;42.178;26.578;2024-01-07T11:39:04;98288.44;;;16.20;100.00
21234;BME280;10774;42.178;26.578;2024-01-07T11:41:34;98281.31;;;16.27;100.00
21234;BME280;10774;42.178;26.578;2024-01-07T11:44:01;98276.28;;;16.16;100.00
21234;BME280;10774;42.178;26.578;2024-01-07T11:46:27;98281.88;;;16.06;100.00
21234;BME280;10774;42.178;26.578;2024-01-07T11:49:02;98264.81;;;15.98;100.00
21234;BME280;10774;42.178;26.578;2024-01-07T11:51:31;98254.03;;;15.81;100.00
21234;BME280;10774;42.178;26.578;2024-01-07T11:53:58;98257.44;;;15.83;100.00
21234;BME280;10774;42.178;26.578;2024-01-07T11:56:25;98268.59;;;15.80;100.00
21234;BME280;10774;42.178;26.578;2024-01-07T11:58:51;98260.16;;;15.75;100.00
21234;BME280;10774;42.178;26.578;2024-01-07T12:01:16;98249.84;;;15.71;100.00
21234;BME280;10774;42.178;26.578;2024-01-07T12:03:46;98247.31;;;15.69;100.00
21234;BME280;10774;42.178;26.578;2024-01-07T12:06:12;98246.28;;;15.62;100.00
21234;BME280;10774;42.178;26.578;2024-01-07T12:08:41;98236.31;;;15.71;100.00
21234;BME280;10774;42.178;26.578;2024-01-07T12:11:08;98237.84;;;15.73;100.00
21234;BME280;10774;42.178;26.578;2024-01-07T12:13:34;98224.97;;;15.75;100.00
21234;BME280;10774;42.178;26.578;2024-01-07T12:16:00;98226.31;;;15.87;100.00
21234;BME280;10774;42.178;26.578;2024-01-07T12:18:25;98235.38;;;16.03;100.00
21234;BME280;10774;42.178;26.578;2024-01-07T12:20:58;98219.13;;;16.03;100.00
21234;BME280;10774;42.178;26.578;2024-01-07T12:23:25;98218.09;;;16.12;100.00
21234;BME280;10774;42.178;26.578;2024-01-07T12:25:54;98218.22;;;16.18;100.00
21234;BME280;10774;42.178;26.578;2024-01-07T12:28:23;98211.75;;;16.59;100.00
21234;BME280;10774;42.178;26.578;2024-01-07T12:30:48;98205.50;;;16.89;100.00
21234;BME280;10774;42.178;26.578;2024-01-07T12:33:19;98201.66;;;16.84;100.00
21234;BME280;10774;42.178;26.578;2024-01-07T12:35:48;98188.53;;;16.72;100.00
21234;BME280;10774;42.178;26.578;2024-01-07T12:38:14;98201.16;;;17.03;100.00
21234;BME280;10774;42.178;26.578;2024-01-07T12:40:40;98206.16;;;17.29;100.00
21234;BME280;10774;42.178;26.578;2024-01-07T12:43:05;98202.97;;;17.63;100.00
21234;BME280;10774;42.178;26.578;2024-01-07T12:45:34;98200.34;;;17.70;100.00
21234;BME280;10774;42.178;26.578;2024-01-07T12:48:00;98211.31;;;17.76;100.00
21234;BME280;10774;42.178;26.578;2024-01-07T12:50:28;98210.69;;;17.89;100.00
21234;BME280;10774;42.178;26.578;2024-01-07T12:52:55;98202.53;;;17.89;100.00
21234;BME280;10774;42.178;26.578;2024-01-07T12:55:20;98208.97;;;18.03;100.00
21234;BME280;10774;42.178;26.578;2024-01-07T12:57:46;98202.06;;;18.00;100.00
21234;BME280;10774;42.178;26.578;2024-01-07T13:00:11;98213.00;;;18.22;100.00
21234;BME280;10774;42.178;26.578;2024-01-07T13:02:37;98199.34;;;18.30;100.00
21234;BME280;10774;42.178;26.578;2024-01-07T13:05:02;98189.59;;;18.21;100.00
21234;BME280;10774;42.178;26.578;2024-01-07T13:07:28;98192.41;;;18.13;99.75
21234;BME280;10774;42.178;26.578;2024-01-07T13:09:54;98189.69;;;18.13;100.00
21234;BME280;10774;42.178;26.578;2024-01-07T13:12:19;98186.13;;;18.27;100.00
21234;BME280;10774;42.178;26.578;2024-01-07T13:14:47;98182.09;;;18.23;100.00